createdAt,value
2022-12-11T00:04:27.853Z,0.00
2022-12-11T00:15:29.609Z,0.00
2022-12-11T00:26:31.311Z,0.00
2022-12-11T00:37:33.192Z,0.00
2022-12-11T00:48:34.790Z,0.00
2022-12-11T00:55:56.494Z,2.09
2022-12-11T00:59:38.084Z,2.66
2022-12-11T01:10:39.916Z,2.21
2022-12-11T01:21:41.660Z,3.72
2022-12-11T01:32:43.360Z,0.00
2022-12-11T01:43:45.106Z,0.00
2022-12-11T01:54:46.809Z,0.00
2022-12-11T02:05:48.583Z,0.00
2022-12-11T02:16:50.281Z,0.00
2022-12-11T02:27:52.028Z,0.00
2022-12-11T02:38:53.724Z,0.00
2022-12-11T02:49:55.495Z,0.00
2022-12-11T03:00:57.196Z,0.00
2022-12-11T03:11:58.945Z,0.00
2022-12-11T03:23:00.637Z,2.29
2022-12-11T03:34:02.391Z,0.00
2022-12-11T03:45:04.097Z,0.00
2022-12-11T03:52:25.771Z,1.70
2022-12-11T04:03:27.491Z,0.00
2022-12-11T04:07:09.125Z,3.21
2022-12-11T04:10:50.748Z,3.22
2022-12-11T04:14:32.450Z,2.92
2022-12-11T04:18:14.071Z,2.31
2022-12-11T04:21:55.715Z,2.84
2022-12-11T04:25:37.369Z,2.61
2022-12-11T04:29:19.024Z,2.67
2022-12-11T04:33:00.599Z,4.72
2022-12-11T04:36:44.322Z,3.39
2022-12-11T04:40:26.003Z,3.28
2022-12-11T04:44:07.676Z,2.56
2022-12-11T04:47:49.309Z,2.28
2022-12-11T04:51:31.961Z,3.44
2022-12-11T04:55:14.041Z,2.77
2022-12-11T04:58:55.261Z,2.91
2022-12-11T05:09:57.044Z,0.00
2022-12-11T05:17:18.704Z,2.09
2022-12-11T05:21:00.326Z,3.03
2022-12-11T05:28:22.059Z,3.81
2022-12-11T05:32:03.709Z,2.09
2022-12-11T05:39:26.421Z,2.40
2022-12-11T05:43:08.025Z,2.67
2022-12-11T05:46:49.812Z,2.90
2022-12-11T05:50:31.323Z,2.21
2022-12-11T05:54:12.923Z,2.99
2022-12-11T05:57:54.592Z,2.79
2022-12-11T06:01:36.302Z,3.00
2022-12-11T06:05:17.909Z,3.59
2022-12-11T06:08:59.611Z,4.07
2022-12-11T06:12:41.397Z,4.21
2022-12-11T06:16:23.173Z,3.51
2022-12-11T06:20:04.722Z,4.34
2022-12-11T06:23:52.143Z,2.09
2022-12-11T06:31:08.214Z,2.77
2022-12-11T06:34:49.552Z,2.09
2022-12-11T06:38:31.304Z,2.84
2022-12-11T06:42:12.959Z,3.26
2022-12-11T06:46:00.581Z,2.37
2022-12-11T06:49:37.311Z,3.03
2022-12-11T06:53:18.963Z,3.11
2022-12-11T06:57:00.660Z,2.58
2022-12-11T07:00:42.405Z,3.22
2022-12-11T07:04:25.046Z,2.84
2022-12-11T07:08:06.834Z,4.38
2022-12-11T07:11:48.441Z,3.56
2022-12-11T07:15:30.102Z,2.91
2022-12-11T07:19:11.926Z,3.36
2022-12-11T07:22:53.532Z,2.87
2022-12-11T07:26:35.173Z,1.90
2022-12-11T07:30:16.838Z,3.26
2022-12-11T07:33:58.509Z,2.41
2022-12-11T07:37:40.080Z,2.09
2022-12-11T07:48:41.859Z,2.58
2022-12-11T07:52:23.425Z,2.17
2022-12-11T08:03:25.168Z,0.00
2022-12-11T08:14:26.948Z,2.56
2022-12-11T08:25:28.646Z,0.00
2022-12-11T08:36:30.407Z,0.00
2022-12-11T08:47:32.124Z,0.00
2022-12-11T08:58:33.883Z,0.00
2022-12-11T09:09:35.595Z,0.00
2022-12-11T09:20:38.363Z,0.00
2022-12-11T09:28:00.129Z,3.18
2022-12-11T09:31:41.677Z,2.22
2022-12-11T09:42:43.439Z,0.00
2022-12-11T09:53:45.168Z,0.00
2022-12-11T10:04:46.938Z,0.00
2022-12-11T10:15:48.664Z,0.00
2022-12-11T10:26:50.404Z,0.00
2022-12-11T10:37:52.109Z,0.00
2022-12-11T10:48:53.871Z,0.00
2022-12-11T10:52:35.470Z,2.33
2022-12-11T11:03:37.206Z,3.72
2022-12-11T11:07:18.930Z,2.64
2022-12-11T11:11:00.498Z,3.29
2022-12-11T11:14:42.201Z,3.54
2022-12-11T11:18:23.942Z,2.81
2022-12-11T11:22:05.674Z,2.81
2022-12-11T11:25:47.301Z,3.77
2022-12-11T11:29:28.905Z,2.29
2022-12-11T11:33:10.564Z,4.02
2022-12-11T11:36:52.217Z,2.51
2022-12-11T11:47:54.032Z,2.51
2022-12-11T11:51:35.704Z,3.38
2022-12-11T11:58:57.422Z,3.60
2022-12-11T12:02:39.092Z,2.09
2022-12-11T12:06:20.686Z,2.48
2022-12-11T12:10:02.252Z,1.90
2022-12-11T12:13:49.449Z,3.45
2022-12-11T12:17:25.584Z,3.25
2022-12-11T12:21:07.149Z,2.05
2022-12-11T12:24:48.823Z,2.76
2022-12-11T12:28:30.546Z,1.90
2022-12-11T12:32:12.281Z,3.29
2022-12-11T12:35:53.907Z,2.67
2022-12-11T12:39:35.567Z,3.05
2022-12-11T12:43:17.167Z,2.09
2022-12-11T12:50:38.850Z,3.44
2022-12-11T12:54:21.437Z,2.40
2022-12-11T12:58:03.126Z,3.87
2022-12-11T13:01:44.908Z,3.63
2022-12-11T13:05:26.403Z,2.99
2022-12-11T13:09:08.140Z,3.51
2022-12-11T13:12:49.888Z,3.17
2022-12-11T13:16:31.576Z,3.65
2022-12-11T13:20:13.188Z,2.80
2022-12-11T13:23:54.813Z,4.00
2022-12-11T13:27:36.588Z,4.42
2022-12-11T13:31:18.352Z,2.09
2022-12-11T13:34:59.853Z,5.75
2022-12-11T13:38:41.608Z,2.56
2022-12-11T13:46:03.291Z,2.48
2022-12-11T13:57:05.051Z,0.00
2022-12-11T14:08:06.887Z,0.00
2022-12-11T14:19:08.587Z,0.00
2022-12-11T14:30:10.839Z,0.00
2022-12-11T14:37:31.972Z,2.53
2022-12-11T14:48:33.723Z,0.00
2022-12-11T14:59:35.481Z,0.00
2022-12-11T15:10:37.246Z,0.00
2022-12-11T15:21:39.029Z,0.00
2022-12-11T15:32:40.880Z,0.00
2022-12-11T15:43:42.852Z,0.00
2022-12-11T15:54:44.645Z,0.00
2022-12-11T16:05:46.510Z,0.00
2022-12-11T16:16:48.291Z,0.00
2022-12-11T16:27:50.221Z,0.00
2022-12-11T16:38:54.144Z,0.00
2022-12-11T16:49:59.912Z,0.00
2022-12-11T17:00:55.748Z,0.00
2022-12-11T17:11:58.490Z,0.00
2022-12-11T17:23:00.243Z,0.00
2022-12-11T17:34:02.127Z,0.00
2022-12-11T17:45:04.113Z,0.00
2022-12-11T17:56:05.920Z,0.00
2022-12-11T18:07:07.700Z,0.00
2022-12-11T18:18:09.541Z,0.00
2022-12-11T18:29:11.550Z,0.00
2022-12-11T18:40:13.481Z,0.00
2022-12-11T18:51:15.439Z,0.00
2022-12-11T19:02:17.299Z,0.00
2022-12-11T19:05:59.025Z,2.64
2022-12-11T19:17:01.032Z,0.00
2022-12-11T19:28:03.092Z,0.00
2022-12-11T19:39:09.833Z,0.00
2022-12-11T19:50:07.127Z,0.00
2022-12-11T20:01:10.302Z,0.00
2022-12-11T20:12:12.260Z,0.00
2022-12-11T20:23:14.183Z,0.00
2022-12-11T20:34:17.193Z,0.00
2022-12-11T20:45:19.117Z,0.00
2022-12-11T20:56:21.085Z,0.00
2022-12-11T21:07:22.853Z,0.00
2022-12-11T21:18:24.654Z,0.00
2022-12-11T21:29:26.391Z,0.00
2022-12-11T21:40:28.209Z,0.00
2022-12-11T21:51:36.148Z,0.00
2022-12-11T22:02:36.009Z,0.00
2022-12-11T22:13:33.477Z,0.00
2022-12-11T22:24:35.246Z,0.00
2022-12-11T22:35:36.953Z,0.00
2022-12-11T22:46:38.729Z,0.00
2022-12-11T22:57:41.445Z,0.00
2022-12-11T23:08:43.378Z,0.00
2022-12-11T23:19:44.913Z,2.19
2022-12-11T23:30:46.692Z,0.00
2022-12-11T23:41:48.357Z,0.00
2022-12-11T23:52:50.110Z,0.00
